Time;durP1;ratioP1;P1;durP2;ratioP2;P2;SDS_P1;SDS_P2;PMS_P1;PMS_P2;Temp;Humidity;BMP_temperature;BMP_pressure;BME280_temperature;BME280_humidity;BME280_pressure;Samples;Min_cycle;Max_cycle;Signal;HPM_P1;HPM_P2
2023/10/11 00:00:40;;;;;;;14.88;8.43;;;16.80;99.90;;;;;;4959104;28;20146;-83
2023/10/11 00:05:53;;;;;;;13.88;8.68;;;16.80;99.90;;;;;;4968655;28;20078;-84
2023/10/11 00:08:19;;;;;;;14.52;9.18;;;16.70;99.90;;;;;;4974534;28;20050;-83
2023/10/11 00:10:54;;;;;;;15.93;9.50;;;16.70;99.90;;;;;;4958334;28;20039;-83
2023/10/11 00:13:25;;;;;;;13.32;8.88;;;16.70;99.90;;;;;;4973040;28;20094;-84
2023/10/11 00:15:52;;;;;;;17.73;9.15;;;16.70;99.90;;;;;;4954929;29;20248;-85
2023/10/11 00:18:30;;;;;;;15.75;9.73;;;16.70;99.90;;;;;;4939082;29;20075;-84
2023/10/11 00:20:59;;;;;;;15.88;9.63;;;16.70;99.90;;;;;;4971712;28;20047;-83
2023/10/11 00:23:27;;;;;;;14.52;9.38;;;16.70;99.90;;;;;;4957567;28;20042;-84
2023/10/11 00:25:58;;;;;;;18.05;9.57;;;16.60;99.90;;;;;;4973933;28;20043;-82
2023/10/11 00:28:24;;;;;;;17.05;10.02;;;16.60;99.90;;;;;;4974399;28;20060;-84
2023/10/11 00:30:55;;;;;;;16.88;9.73;;;16.60;99.90;;;;;;4989995;28;20495;-83
2023/10/11 00:33:21;;;;;;;17.42;10.35;;;16.50;99.90;;;;;;4957411;28;20106;-84
2023/10/11 00:35:48;;;;;;;18.67;10.60;;;16.50;99.90;;;;;;4938424;29;20035;-84
2023/10/11 00:38:20;;;;;;;15.55;9.55;;;16.60;99.90;;;;;;4938974;29;20046;-84
2023/10/11 00:41:06;;;;;;;18.05;10.65;;;16.60;99.90;;;;;;4952946;29;20832;-83
2023/10/11 00:43:38;;;;;;;18.02;10.35;;;16.50;99.90;;;;;;4947883;28;20047;-83
2023/10/11 00:46:09;;;;;;;18.27;10.63;;;16.50;99.90;;;;;;4957742;28;20150;-84
2023/10/11 00:48:51;;;;;;;19.27;10.52;;;16.50;99.90;;;;;;4974203;28;20043;-85
2023/10/11 00:51:23;;;;;;;17.17;10.23;;;16.40;99.90;;;;;;4973704;28;20109;-83
2023/10/11 00:53:50;;;;;;;23.50;10.82;;;16.40;99.90;;;;;;4974023;28;20046;-84
2023/10/11 00:56:18;;;;;;;19.25;11.30;;;16.40;99.90;;;;;;4957539;28;20501;-82
2023/10/11 00:58:44;;;;;;;16.13;11.18;;;16.40;99.90;;;;;;4973559;28;20043;-84
2023/10/11 01:01:10;;;;;;;18.70;11.43;;;16.40;99.90;;;;;;4946455;29;20110;-83
2023/10/11 01:03:37;;;;;;;20.38;11.07;;;16.40;99.90;;;;;;4952916;28;20256;-83
2023/10/11 01:06:04;;;;;;;17.35;10.82;;;16.40;99.90;;;;;;4957427;28;20046;-84
2023/10/11 01:08:38;;;;;;;22.23;11.75;;;16.40;99.90;;;;;;4957173;28;20494;-83
2023/10/11 01:11:12;;;;;;;22.73;11.98;;;16.40;99.90;;;;;;4942736;28;20074;-83
2023/10/11 01:13:42;;;;;;;18.02;10.95;;;16.40;99.90;;;;;;4956891;28;20049;-85
2023/10/11 01:16:11;;;;;;;21.27;12.43;;;16.40;99.90;;;;;;4973280;28;20685;-83
2023/10/11 01:18:38;;;;;;;19.58;11.68;;;16.40;99.90;;;;;;4957101;28;20034;-84
2023/10/11 01:21:04;;;;;;;22.95;12.80;;;16.40;99.90;;;;;;4940902;28;20081;-83
2023/10/11 01:23:34;;;;;;;19.75;12.07;;;16.40;99.90;;;;;;4957106;28;20043;-84
2023/10/11 01:26:07;;;;;;;22.02;12.48;;;16.40;99.90;;;;;;4957338;28;20133;-85
2023/10/11 01:28:38;;;;;;;21.13;12.23;;;16.30;99.90;;;;;;4956971;28;20474;-82
2023/10/11 01:31:10;;;;;;;21.40;12.02;;;16.30;99.90;;;;;;4972027;28;20574;-84
2023/10/11 01:33:42;;;;;;;24.35;14.23;;;16.30;99.90;;;;;;4972841;28;20064;-83
2023/10/11 01:36:09;;;;;;;25.92;13.23;;;16.30;99.90;;;;;;4973079;28;20375;-84
2023/10/11 01:38:48;;;;;;;24.90;13.50;;;16.30;99.90;;;;;;4956995;28;20050;-83
2023/10/11 01:41:28;;;;;;;25.77;13.60;;;16.30;99.90;;;;;;4956030;28;20042;-84
2023/10/11 01:43:56;;;;;;;25.58;14.07;;;16.30;99.90;;;;;;4956846;28;20129;-84
2023/10/11 01:46:26;;;;;;;22.95;13.73;;;16.30;99.90;;;;;;4972653;28;20070;-84
2023/10/11 01:48:53;;;;;;;26.95;14.85;;;16.30;99.90;;;;;;4956767;28;20039;-84
2023/10/11 01:52:06;;;;;;;27.48;15.02;;;16.30;99.90;;;;;;4972537;28;20070;-85
2023/10/11 01:54:09;;;;;;;25.17;14.48;;;16.30;99.90;;;;;;4947243;28;20050;-83
2023/10/11 01:56:34;;;;;;;28.20;15.20;;;16.30;99.90;;;;;;4955387;28;20050;-84
2023/10/11 01:59:01;;;;;;;26.77;14.90;;;16.30;99.90;;;;;;4956517;28;20117;-84
2023/10/11 02:01:30;;;;;;;25.27;15.35;;;16.30;99.90;;;;;;4938720;28;20346;-84
2023/10/11 02:03:59;;;;;;;25.25;15.30;;;16.30;99.90;;;;;;4956264;28;20038;-84
2023/10/11 02:06:26;;;;;;;26.52;13.98;;;16.30;99.90;;;;;;4937496;29;20127;-84
2023/10/11 02:08:52;;;;;;;23.83;15.20;;;16.30;99.90;;;;;;4953013;28;20105;-84
2023/10/11 02:11:26;;;;;;;27.65;15.70;;;16.30;99.90;;;;;;4967828;28;20051;-83
2023/10/11 02:13:57;;;;;;;26.98;15.65;;;16.30;99.90;;;;;;4971969;28;20039;-84
2023/10/11 02:16:23;;;;;;;27.17;15.73;;;16.20;99.90;;;;;;4940334;28;20034;-83
2023/10/11 02:18:58;;;;;;;26.20;16.25;;;16.30;99.90;;;;;;4970954;28;20078;-84
2023/10/11 02:21:24;;;;;;;22.95;15.65;;;16.30;99.90;;;;;;4970055;28;20530;-85
2023/10/11 02:23:50;;;;;;;33.03;17.13;;;16.20;99.90;;;;;;4954429;28;20054;-83
2023/10/11 02:26:16;;;;;;;26.80;16.13;;;16.20;99.90;;;;;;4951685;28;20388;-83
2023/10/11 02:28:43;;;;;;;27.00;16.60;;;16.20;99.90;;;;;;4966404;28;20042;-84
2023/10/11 02:31:25;;;;;;;27.75;16.63;;;16.20;99.90;;;;;;4955354;28;20125;-84
2023/10/11 02:33:51;;;;;;;31.55;16.88;;;16.20;99.90;;;;;;4957367;28;20046;-83
2023/10/11 02:36:18;;;;;;;33.85;16.63;;;16.20;99.90;;;;;;4939585;28;20510;-84
2023/10/11 02:38:50;;;;;;;27.63;16.52;;;16.20;99.90;;;;;;4965113;28;20122;-84
2023/10/11 02:41:21;;;;;;;26.85;16.90;;;16.20;99.90;;;;;;4955360;28;20507;-84
2023/10/11 02:43:50;;;;;;;31.35;17.40;;;16.20;99.90;;;;;;4971899;28;20127;-84
2023/10/11 02:46:23;;;;;;;29.38;16.83;;;16.20;99.90;;;;;;4955580;28;20145;-83
2023/10/11 02:49:18;;;;;;;28.25;17.70;;;16.20;99.90;;;;;;4972106;28;20042;-84
2023/10/11 02:51:59;;;;;;;28.15;16.00;;;16.20;99.90;;;;;;4950779;28;20126;-83
2023/10/11 02:54:34;;;;;;;34.00;16.35;;;16.10;99.90;;;;;;4937052;29;20078;-84
2023/10/11 02:57:05;;;;;;;29.50;16.88;;;16.10;99.90;;;;;;4967578;28;20035;-84
2023/10/11 02:59:33;;;;;;;25.67;16.65;;;16.10;99.90;;;;;;4955716;28;20529;-84
2023/10/11 03:02:01;;;;;;;26.80;16.77;;;16.10;99.90;;;;;;4940164;28;20321;-82
2023/10/11 03:04:39;;;;;;;26.20;16.42;;;16.20;99.90;;;;;;4971934;28;20051;-85
2023/10/11 03:07:12;;;;;;;35.53;18.20;;;16.20;99.90;;;;;;4956056;28;20483;-84
2023/10/11 03:09:40;;;;;;;31.60;16.55;;;16.10;99.90;;;;;;4956158;28;20495;-84
2023/10/11 03:12:17;;;;;;;29.88;16.55;;;16.10;99.90;;;;;;4971894;28;20038;-85
2023/10/11 03:14:45;;;;;;;31.88;16.75;;;16.10;99.90;;;;;;4952880;28;20047;-84
2023/10/11 03:17:15;;;;;;;33.95;16.42;;;16.10;99.90;;;;;;4940203;28;20049;-83
2023/10/11 03:19:43;;;;;;;28.55;16.65;;;16.10;99.90;;;;;;4971118;28;20537;-84
2023/10/11 03:22:19;;;;;;;25.80;15.68;;;16.10;99.90;;;;;;4953899;28;20051;-84
2023/10/11 03:24:54;;;;;;;29.60;17.45;;;16.10;99.90;;;;;;4970622;28;20402;-85
2023/10/11 03:27:20;;;;;;;24.73;16.33;;;16.00;99.90;;;;;;4970923;28;20047;-84
2023/10/11 03:29:47;;;;;;;29.42;17.15;;;16.00;99.90;;;;;;4954794;28;20679;-84
2023/10/11 03:32:12;;;;;;;30.98;16.52;;;16.00;99.90;;;;;;4954723;28;20049;-85
2023/10/11 03:34:38;;;;;;;29.00;17.00;;;16.00;99.90;;;;;;4951794;28;20130;-83
2023/10/11 03:37:10;;;;;;;32.08;16.63;;;16.00;99.90;;;;;;4943112;28;20098;-84
2023/10/11 03:42:14;;;;;;;30.25;16.92;;;16.00;99.90;;;;;;4971475;28;20046;-83
2023/10/11 03:44:47;;;;;;;28.13;16.48;;;16.00;99.90;;;;;;4952348;28;20146;-84
2023/10/11 03:47:15;;;;;;;35.55;17.35;;;15.90;99.90;;;;;;4941402;28;20501;-84
2023/10/11 03:52:19;;;;;;;30.20;16.67;;;15.90;99.90;;;;;;4969920;28;20054;-83
2023/10/11 03:55:09;;;;;;;29.10;16.50;;;15.90;99.90;;;;;;4922770;28;20435;-84
2023/10/11 03:57:40;;;;;;;31.23;16.00;;;15.90;99.90;;;;;;4967147;28;20042;-84
2023/10/11 04:00:28;;;;;;;29.83;15.75;;;15.90;99.90;;;;;;4959019;28;20402;-84
2023/10/11 04:02:57;;;;;;;29.60;16.60;;;15.90;99.90;;;;;;4963854;28;20051;-84
2023/10/11 04:05:28;;;;;;;24.20;15.20;;;15.90;99.90;;;;;;4939848;29;20046;-83
2023/10/11 04:07:55;;;;;;;27.10;15.82;;;16.00;99.90;;;;;;4956818;28;20047;-84
2023/10/11 04:10:38;;;;;;;26.30;15.90;;;15.90;99.90;;;;;;4942514;28;20046;-84
2023/10/11 04:13:08;;;;;;;26.80;15.82;;;16.00;99.90;;;;;;4960468;28;20046;-84
2023/10/11 04:15:35;;;;;;;27.50;15.00;;;16.00;99.90;;;;;;4958114;28;20101;-84
2023/10/11 04:18:14;;;;;;;26.85;15.32;;;16.00;99.90;;;;;;4958284;28;20042;-84
2023/10/11 04:20:40;;;;;;;26.33;14.80;;;16.10;99.90;;;;;;4957991;28;20105;-84
2023/10/11 04:23:14;;;;;;;27.35;15.27;;;16.00;99.90;;;;;;4957956;28;20043;-82
2023/10/11 04:25:43;;;;;;;25.13;14.05;;;16.00;99.90;;;;;;4943090;29;20129;-84
2023/10/11 04:28:12;;;;;;;28.08;15.35;;;16.00;99.90;;;;;;4941052;28;20043;-83
2023/10/11 04:30:41;;;;;;;29.90;15.85;;;16.10;99.90;;;;;;4958323;28;20106;-84
2023/10/11 04:33:22;;;;;;;27.75;14.75;;;16.10;99.90;;;;;;4957971;28;20048;-83
2023/10/11 04:35:58;;;;;;;26.63;15.32;;;16.10;99.90;;;;;;4943063;28;20122;-83
2023/10/11 04:38:23;;;;;;;31.35;16.20;;;16.10;99.90;;;;;;4945852;28;20046;-82
2023/10/11 04:40:51;;;;;;;25.80;15.43;;;16.10;99.90;;;;;;4957542;28;20042;-84
2023/10/11 04:43:21;;;;;;;28.73;15.68;;;16.00;99.90;;;;;;4957549;28;20046;-85
2023/10/11 04:45:49;;;;;;;27.75;14.48;;;16.00;99.90;;;;;;4957208;28;20057;-83
2023/10/11 04:48:19;;;;;;;27.27;15.05;;;16.00;99.90;;;;;;4957797;28;20055;-84
2023/10/11 04:50:50;;;;;;;30.80;16.52;;;16.00;99.90;;;;;;4957585;28;20039;-84
2023/10/11 04:53:21;;;;;;;31.33;16.35;;;16.00;99.90;;;;;;4941859;28;20046;-83
2023/10/11 04:56:51;;;;;;;35.40;16.02;;;16.00;99.90;;;;;;4954245;28;20047;-84
2023/10/11 04:58:52;;;;;;;26.65;16.15;;;16.00;99.90;;;;;;4973459;28;20046;-84
2023/10/11 05:01:24;;;;;;;28.10;15.40;;;15.90;99.90;;;;;;4953984;28;20487;-84
2023/10/11 05:03:58;;;;;;;27.30;15.02;;;16.00;99.90;;;;;;4928669;28;20421;-84
2023/10/11 05:06:31;;;;;;;30.27;15.65;;;16.00;99.90;;;;;;4946042;28;20042;-84
2023/10/11 05:09:13;;;;;;;28.45;15.82;;;16.00;99.90;;;;;;4957072;28;20133;-83
2023/10/11 05:11:44;;;;;;;34.70;16.42;;;16.00;99.90;;;;;;4973349;28;20061;-83
2023/10/11 05:14:10;;;;;;;27.23;15.38;;;16.00;99.90;;;;;;4973291;28;20078;-84
2023/10/11 05:16:44;;;;;;;30.63;16.48;;;16.00;99.90;;;;;;4957392;28;20035;-83
2023/10/11 05:19:14;;;;;;;29.63;16.77;;;15.90;99.90;;;;;;4957168;28;20122;-84
2023/10/11 05:21:40;;;;;;;33.50;16.27;;;15.90;99.90;;;;;;4989602;28;20051;-84
2023/10/11 05:24:27;;;;;;;29.83;15.68;;;15.90;99.90;;;;;;4957105;28;20042;-84
2023/10/11 05:27:03;;;;;;;31.95;16.10;;;16.00;99.90;;;;;;4943758;28;20360;-84
2023/10/11 05:29:33;;;;;;;28.50;16.33;;;15.90;99.90;;;;;;4942346;28;20465;-84
2023/10/11 05:32:20;;;;;;;38.30;17.60;;;15.90;99.90;;;;;;4957353;28;20463;-83
2023/10/11 05:51:11;;;;;;;30.73;16.70;;;15.90;99.90;;;;;;4971997;28;20043;-83
2023/10/11 05:53:40;;;;;;;32.22;17.63;;;15.90;99.90;;;;;;4956240;28;20049;-83
2023/10/11 05:56:08;;;;;;;35.78;18.02;;;15.90;99.90;;;;;;4956040;28;20379;-82
2023/10/11 05:58:34;;;;;;;31.42;16.92;;;15.90;99.90;;;;;;4972470;28;20055;-82
2023/10/11 06:01:05;;;;;;;28.27;16.80;;;15.90;99.90;;;;;;4941075;28;20814;-83
2023/10/11 06:03:35;;;;;;;31.80;17.07;;;15.90;99.90;;;;;;4956676;28;20390;-84
2023/10/11 06:06:13;;;;;;;32.25;17.05;;;15.90;99.90;;;;;;4971391;28;20046;-83
2023/10/11 06:08:39;;;;;;;33.58;18.02;;;15.90;99.90;;;;;;4951168;28;20070;-83
2023/10/11 06:11:08;;;;;;;33.08;16.88;;;15.90;99.90;;;;;;4972314;28;20406;-82
2023/10/11 06:13:34;;;;;;;33.25;17.85;;;15.90;99.90;;;;;;4971921;28;20122;-83
2023/10/11 06:15:59;;;;;;;33.42;17.38;;;15.90;99.90;;;;;;4963458;28;20130;-82
2023/10/11 06:21:30;;;;;;;33.42;17.60;;;15.90;99.90;;;;;;4958963;28;20447;-82
2023/10/11 06:24:00;;;;;;;38.15;17.65;;;15.90;99.90;;;;;;4933102;28;20057;-83
2023/10/11 06:26:52;;;;;;;34.47;19.17;;;16.00;99.90;;;;;;4963663;28;20070;-82
2023/10/11 06:29:17;;;;;;;34.00;17.83;;;15.90;99.90;;;;;;4964536;28;20078;-82
2023/10/11 06:31:45;;;;;;;29.38;17.85;;;15.90;99.90;;;;;;4949454;29;20122;-82
2023/10/11 06:34:23;;;;;;;32.85;17.55;;;15.90;99.90;;;;;;4936412;28;20798;-82
2023/10/11 06:36:50;;;;;;;36.78;19.00;;;16.00;99.90;;;;;;4953467;28;20046;-82
2023/10/11 06:42:18;;;;;;;33.22;19.27;;;16.00;99.90;;;;;;4948505;28;20196;-82
2023/10/11 06:44:48;;;;;;;33.63;18.58;;;16.00;99.90;;;;;;4944417;28;20039;-82
2023/10/11 06:47:18;;;;;;;38.17;18.63;;;16.00;99.90;;;;;;4947744;28;20035;-85
2023/10/11 06:49:55;;;;;;;32.83;19.40;;;16.00;99.90;;;;;;4962831;28;20130;-84
2023/10/11 06:52:25;;;;;;;39.90;19.08;;;16.10;99.90;;;;;;4946476;28;20057;-84
2023/10/11 06:57:55;;;;;;;36.83;20.08;;;16.10;99.90;;;;;;4964289;28;20043;-85
2023/10/11 07:00:27;;;;;;;35.28;20.35;;;16.10;99.90;;;;;;4961455;28;20038;-86
2023/10/11 07:03:45;;;;;;;39.47;21.38;;;16.10;99.90;;;;;;4964673;28;20067;-85
2023/10/11 07:06:35;;;;;;;35.85;19.98;;;16.10;99.90;;;;;;4961843;28;20057;-83
2023/10/11 07:09:05;;;;;;;36.88;19.42;;;16.20;99.90;;;;;;4963199;28;20394;-86
2023/10/11 07:11:40;;;;;;;41.28;20.77;;;16.20;99.90;;;;;;4943512;28;20150;-84
2023/10/11 07:14:14;;;;;;;39.08;20.02;;;16.20;99.90;;;;;;4932593;28;20218;-86
2023/10/11 07:20:00;;;;;;;36.55;20.45;;;16.20;99.90;;;;;;4965825;28;20038;-84
2023/10/11 07:22:26;;;;;;;35.38;19.67;;;16.20;99.90;;;;;;4965989;28;20055;-83
2023/10/11 07:25:38;;;;;;;35.25;20.13;;;16.20;99.90;;;;;;4961586;28;20101;-86
2023/10/11 07:28:07;;;;;;;34.85;20.70;;;16.20;99.90;;;;;;4965144;28;20047;-85
2023/10/11 07:33:36;;;;;;;43.60;21.88;;;16.20;99.90;;;;;;4956859;28;20050;-84
2023/10/11 07:36:11;;;;;;;38.63;19.95;;;16.20;99.90;;;;;;4975011;28;20082;-84
2023/10/11 07:42:08;;;;;;;39.50;20.63;;;16.30;99.90;;;;;;4971529;28;20204;-86
2023/10/11 07:44:39;;;;;;;39.70;21.05;;;16.30;99.90;;;;;;4972268;28;20058;-84
2023/10/11 07:47:15;;;;;;;38.95;22.60;;;16.30;99.90;;;;;;4953913;28;20042;-86
2023/10/11 07:49:44;;;;;;;34.05;20.90;;;16.30;99.90;;;;;;4951699;28;20035;-85
2023/10/11 07:52:13;;;;;;;41.40;21.15;;;16.30;99.90;;;;;;4949547;28;20038;-86
2023/10/11 07:54:43;;;;;;;42.83;22.00;;;16.30;99.90;;;;;;4954068;28;20483;-86
2023/10/11 07:57:15;;;;;;;41.33;21.35;;;16.30;99.90;;;;;;4951463;28;20035;-85
2023/10/11 07:59:42;;;;;;;39.63;22.55;;;16.40;99.90;;;;;;4962628;28;20042;-85
2023/10/11 08:02:09;;;;;;;41.08;22.15;;;16.40;99.90;;;;;;4983124;28;20094;-85
2023/10/11 08:04:46;;;;;;;36.80;21.52;;;16.40;99.90;;;;;;4968498;28;20054;-85
2023/10/11 08:07:16;;;;;;;44.28;23.17;;;16.40;99.90;;;;;;4950304;28;20399;-86
2023/10/11 08:09:46;;;;;;;43.28;23.13;;;16.50;99.90;;;;;;4965791;28;20511;-86
2023/10/11 08:12:13;;;;;;;40.67;22.10;;;16.50;99.90;;;;;;4949335;28;20038;-87
2023/10/11 08:14:45;;;;;;;40.22;22.85;;;16.50;99.90;;;;;;4947800;28;20030;-86
2023/10/11 08:17:15;;;;;;;48.45;24.17;;;16.50;99.90;;;;;;4951770;28;20502;-86
2023/10/11 08:19:44;;;;;;;46.58;24.15;;;16.50;99.90;;;;;;4964879;28;20035;-86
2023/10/11 08:22:19;;;;;;;43.47;22.67;;;16.50;99.90;;;;;;4964904;28;20039;-86
2023/10/11 08:24:49;;;;;;;49.55;26.33;;;16.50;99.90;;;;;;4935145;28;20047;-88
2023/10/11 08:27:23;;;;;;;50.08;24.85;;;16.50;99.90;;;;;;4952373;28;20092;-86
2023/10/11 08:29:54;;;;;;;41.85;24.92;;;16.40;99.90;;;;;;4947092;28;20044;-87
2023/10/11 08:32:25;;;;;;;47.72;26.00;;;16.50;99.90;;;;;;4949641;28;20046;-87
2023/10/11 08:34:51;;;;;;;48.03;26.37;;;16.50;99.90;;;;;;4954276;28;20506;-88
2023/10/11 08:37:17;;;;;;;52.25;26.83;;;16.50;99.90;;;;;;4936740;28;20461;-89
2023/10/11 08:39:46;;;;;;;51.67;26.25;;;16.50;99.90;;;;;;4946748;28;20190;-86
2023/10/11 08:42:14;;;;;;;49.90;26.02;;;16.50;99.90;;;;;;4953414;28;20042;-86
2023/10/11 08:44:45;;;;;;;57.47;28.05;;;16.50;99.90;;;;;;4963423;28;20130;-85
2023/10/11 08:47:20;;;;;;;53.13;27.95;;;16.40;99.90;;;;;;4947076;28;20530;-85
2023/10/11 08:49:49;;;;;;;57.55;27.02;;;16.40;99.90;;;;;;4965854;28;20133;-85
2023/10/11 08:52:23;;;;;;;50.08;26.92;;;16.40;99.90;;;;;;4948185;28;20114;-85
2023/10/11 08:54:51;;;;;;;54.67;27.92;;;16.50;99.90;;;;;;4948624;28;20083;-84
2023/10/11 08:57:49;;;;;;;55.05;28.83;;;16.40;99.90;;;;;;4939790;28;20536;-86
2023/10/11 09:01:24;;;;;;;58.97;30.23;;;16.40;99.90;;;;;;4948919;28;20078;-83
2023/10/11 09:04:13;;;;;;;54.45;29.25;;;16.40;99.90;;;;;;4961612;28;20050;-86
2023/10/11 09:06:46;;;;;;;55.45;30.27;;;16.40;99.90;;;;;;4964214;28;20047;-90
2023/10/11 09:12:49;;;;;;;54.05;28.65;;;16.50;99.90;;;;;;4966111;28;20086;-90
2023/10/11 09:15:16;;;;;;;49.80;28.13;;;16.50;99.90;;;;;;4982855;28;20062;-87
2023/10/11 09:17:42;;;;;;;52.05;29.80;;;16.50;99.90;;;;;;4949691;28;20108;-87
2023/10/11 09:20:24;;;;;;;50.08;28.50;;;16.50;99.90;;;;;;4966440;28;20446;-88
2023/10/11 09:22:55;;;;;;;;;;;16.50;99.90;;;;;;4936689;28;20120;-88
2023/10/11 09:25:22;;;;;;;48.85;26.45;;;16.50;99.90;;;;;;4951982;28;19918;-88
2023/10/11 09:27:49;;;;;;;48.00;28.10;;;16.50;99.90;;;;;;4949378;28;20050;-87
2023/10/11 09:30:19;;;;;;;53.72;25.88;;;16.60;99.90;;;;;;4946528;28;20399;-88
2023/10/11 09:32:51;;;;;;;51.15;25.95;;;16.60;99.90;;;;;;4946585;28;20040;-86
2023/10/11 09:35:26;;;;;;;46.78;26.00;;;16.60;99.90;;;;;;4947975;28;20039;-89
2023/10/11 09:38:01;;;;;;;46.85;23.75;;;16.70;99.90;;;;;;4948111;28;20105;-82
2023/10/11 09:40:34;;;;;;;40.40;23.70;;;16.70;99.90;;;;;;4930669;28;20072;-83
2023/10/11 09:43:01;;;;;;;40.75;21.95;;;16.70;99.90;;;;;;4959214;28;20058;-83
2023/10/11 09:45:44;;;;;;;45.28;22.17;;;16.80;99.90;;;;;;4930137;28;20069;-82
2023/10/11 09:48:19;;;;;;;33.05;20.75;;;16.80;99.90;;;;;;4947164;28;20499;-83
2023/10/11 09:50:44;;;;;;;40.17;21.55;;;16.80;99.90;;;;;;4962341;28;20050;-83
2023/10/11 09:53:14;;;;;;;32.70;19.80;;;16.80;99.90;;;;;;4957821;28;20051;-83
2023/10/11 09:56:30;;;;;;;34.28;20.05;;;16.90;99.90;;;;;;4959475;28;20137;-83
2023/10/11 09:59:25;;;;;;;33.70;17.85;;;16.90;99.90;;;;;;4946134;28;20057;-83
2023/10/11 10:02:15;;;;;;;33.03;17.58;;;17.00;99.90;;;;;;4963220;28;20039;-82
2023/10/11 10:04:50;;;;;;;31.20;17.77;;;17.00;99.90;;;;;;4960572;28;20057;-82
2023/10/11 10:07:29;;;;;;;32.67;17.25;;;17.00;99.90;;;;;;4959929;28;20047;-84
2023/10/11 10:10:02;;;;;;;34.28;17.73;;;17.00;99.90;;;;;;4959284;28;20054;-83
2023/10/11 10:12:41;;;;;;;29.80;16.95;;;17.00;99.90;;;;;;4946882;28;21745;-83
2023/10/11 10:15:12;;;;;;;31.55;16.08;;;17.10;99.90;;;;;;4976307;28;20053;-83
2023/10/11 10:17:38;;;;;;;28.67;16.15;;;17.10;99.90;;;;;;4944948;28;20181;-84
2023/10/11 10:20:32;;;;;;;29.83;14.38;;;17.20;99.90;;;;;;4960112;28;20050;-83
2023/10/11 10:23:17;;;;;;;23.42;12.55;;;17.30;99.90;;;;;;4946842;28;20079;-83
2023/10/11 10:25:48;;;;;;;22.88;12.43;;;17.40;99.90;;;;;;4945663;28;20494;-84
2023/10/11 10:28:32;;;;;;;19.48;11.32;;;17.50;99.90;;;;;;4946737;28;21222;-82
2023/10/11 10:31:11;;;;;;;19.30;10.98;;;17.50;99.90;;;;;;4962620;28;20093;-83
2023/10/11 10:33:37;;;;;;;15.27;9.00;;;17.60;99.90;;;;;;4960932;28;20039;-81
2023/10/11 10:36:21;;;;;;;17.80;10.15;;;17.70;99.90;;;;;;4944533;28;20035;-83
2023/10/11 10:41:36;;;;;;;11.65;8.05;;;17.80;99.90;;;;;;4978442;28;20108;-83
2023/10/11 10:44:12;;;;;;;14.27;8.73;;;17.80;99.90;;;;;;4947249;28;22199;-83
2023/10/11 10:46:50;;;;;;;11.25;7.50;;;17.90;99.90;;;;;;4946407;28;20399;-84
2023/10/11 10:49:42;;;;;;;14.60;7.97;;;17.90;99.90;;;;;;4943495;28;20043;-83
2023/10/11 10:52:18;;;;;;;;;;;17.90;99.90;;;;;;4962425;28;20125;-84
2023/10/11 10:55:02;;;;;;;13.50;8.27;;;17.90;99.90;;;;;;4948094;28;19918;-82
2023/10/11 10:57:32;;;;;;;21.65;8.77;;;17.90;99.90;;;;;;4963047;28;20405;-83
2023/10/11 11:00:20;;;;;;;15.38;7.90;;;17.90;99.90;;;;;;4963233;28;20522;-83
2023/10/11 11:02:46;;;;;;;13.43;7.80;;;18.00;99.90;;;;;;4962127;28;20074;-83
2023/10/11 11:05:15;;;;;;;13.52;7.18;;;18.10;99.90;;;;;;4946970;28;20997;-82
2023/10/11 11:07:47;;;;;;;13.45;7.88;;;18.20;99.90;;;;;;4981406;28;20057;-82
2023/10/11 11:10:20;;;;;;;13.55;7.80;;;18.20;99.90;;;;;;4947580;28;20047;-82
2023/10/11 11:12:50;;;;;;;13.52;7.57;;;18.30;99.90;;;;;;4932744;28;20035;-83
2023/10/11 11:15:22;;;;;;;12.70;7.00;;;18.40;99.90;;;;;;4950182;28;20042;-82
2023/10/11 11:17:51;;;;;;;15.52;7.25;;;18.50;99.90;;;;;;4965325;28;20077;-82
2023/10/11 11:22:47;;;;;;;14.40;6.25;;;18.70;99.90;;;;;;4964439;28;20064;-82
2023/10/11 11:28:05;;;;;;;13.90;6.03;;;18.90;99.90;;;;;;4964067;28;20507;-81
2023/10/11 11:30:35;;;;;;;9.90;5.80;;;19.00;99.90;;;;;;4982889;28;20053;-84
2023/10/11 11:33:13;;;;;;;11.63;5.65;;;19.10;99.90;;;;;;4965099;28;20736;-82
2023/10/11 11:35:55;;;;;;;11.32;6.10;;;19.00;99.90;;;;;;4947342;28;20568;-83
2023/10/11 11:38:21;;;;;;;9.75;5.93;;;19.00;99.90;;;;;;4964354;28;20049;-83
2023/10/11 11:40:51;;;;;;;8.70;5.70;;;19.00;99.90;;;;;;4967017;28;20402;-84
2023/10/11 11:43:20;;;;;;;9.30;5.00;;;18.90;99.90;;;;;;4965789;28;20054;-84
2023/10/11 11:45:48;;;;;;;9.52;5.00;;;19.00;99.90;;;;;;4951674;28;20062;-84
2023/10/11 11:48:14;;;;;;;7.60;4.90;;;19.00;99.90;;;;;;4951360;28;20093;-84
2023/10/11 11:50:40;;;;;;;10.77;5.05;;;19.00;99.90;;;;;;4973743;28;20507;-84
2023/10/11 11:53:06;;;;;;;8.93;4.88;;;19.00;99.90;;;;;;4958052;28;20146;-84
2023/10/11 11:55:34;;;;;;;10.40;5.20;;;19.00;99.90;;;;;;4966000;28;20039;-82
2023/10/11 11:58:00;;;;;;;8.85;4.93;;;19.00;99.90;;;;;;4955101;28;20043;-83
2023/10/11 12:02:53;;;;;;;9.93;5.13;;;19.10;99.90;;;;;;4955031;28;20039;-83
2023/10/11 12:05:20;;;;;;;15.13;4.95;;;19.10;99.90;;;;;;4959204;28;20046;-85
2023/10/11 12:07:48;;;;;;;9.23;5.35;;;19.20;99.90;;;;;;4954135;29;20039;-84
2023/10/11 12:10:23;;;;;;;7.18;4.68;;;19.20;99.90;;;;;;4957340;28;20392;-84
2023/10/11 12:12:54;;;;;;;8.88;5.22;;;19.30;99.90;;;;;;4929820;28;20039;-83
2023/10/11 12:15:20;;;;;;;10.80;5.10;;;19.20;99.90;;;;;;4957937;28;20038;-83
2023/10/11 12:17:47;;;;;;;12.90;5.03;;;19.20;99.90;;;;;;4955522;28;20070;-86
2023/10/11 12:20:14;;;;;;;7.30;4.97;;;19.30;99.90;;;;;;4954798;29;20035;-84
2023/10/11 12:22:43;;;;;;;10.63;4.93;;;19.30;99.90;;;;;;4956274;28;20376;-83
2023/10/11 12:25:12;;;;;;;13.20;4.88;;;19.30;99.90;;;;;;4970000;28;20042;-82
2023/10/11 12:27:41;;;;;;;7.85;4.75;;;19.20;99.90;;;;;;4950536;29;20036;-83
2023/10/11 12:30:19;;;;;;;8.05;4.38;;;19.20;99.90;;;;;;4954212;28;20082;-83
2023/10/11 12:32:49;;;;;;;8.98;4.40;;;19.30;99.90;;;;;;4966983;28;20031;-83
2023/10/11 12:35:16;;;;;;;8.65;4.45;;;19.40;99.90;;;;;;4957113;28;20045;-83
2023/10/11 12:37:42;;;;;;;8.77;4.05;;;19.40;99.90;;;;;;4957715;28;20116;-84
2023/10/11 12:40:22;;;;;;;7.57;4.40;;;19.40;99.90;;;;;;4957536;28;20386;-82
2023/10/11 12:42:48;;;;;;;9.95;4.38;;;19.50;99.90;;;;;;4963007;28;20047;-84
2023/10/11 12:45:17;;;;;;;10.05;4.72;;;19.50;99.90;;;;;;4973083;28;20059;-83
2023/10/11 12:47:43;;;;;;;9.98;4.70;;;19.50;99.90;;;;;;4952188;28;20143;-83
2023/10/11 12:50:09;;;;;;;8.07;4.28;;;19.50;99.90;;;;;;4963898;28;20047;-83
2023/10/11 12:52:38;;;;;;;8.57;4.97;;;19.50;99.90;;;;;;4956015;28;20042;-84
2023/10/11 12:55:07;;;;;;;10.38;4.85;;;19.50;99.90;;;;;;4973446;28;20051;-83
2023/10/11 12:57:38;;;;;;;7.03;4.32;;;19.50;99.90;;;;;;4952754;28;20521;-83
2023/10/11 13:00:15;;;;;;;9.32;4.88;;;19.50;99.90;;;;;;4941762;28;20038;-83
2023/10/11 13:02:48;;;;;;;9.55;4.68;;;19.50;99.90;;;;;;4973377;28;20478;-84
2023/10/11 13:05:15;;;;;;;11.07;4.78;;;19.50;99.90;;;;;;4951616;29;20436;-83
2023/10/11 13:07:42;;;;;;;8.05;4.70;;;19.50;99.90;;;;;;4963389;28;20097;-83
2023/10/11 13:10:07;;;;;;;9.50;4.53;;;19.40;99.90;;;;;;4956634;28;20461;-82
2023/10/11 13:12:37;;;;;;;5.63;4.10;;;19.40;99.90;;;;;;4973099;28;20178;-83
2023/10/11 13:15:08;;;;;;;7.68;4.18;;;19.40;99.90;;;;;;4956843;28;20035;-83
2023/10/11 13:17:34;;;;;;;6.45;4.35;;;19.40;99.90;;;;;;4956850;28;20161;-83
2023/10/11 13:20:09;;;;;;;9.95;4.35;;;19.40;99.90;;;;;;4955306;28;20099;-84
2023/10/11 13:22:35;;;;;;;8.43;4.18;;;19.40;99.90;;;;;;4956999;28;20050;-83
2023/10/11 13:25:02;;;;;;;12.20;4.60;;;19.50;99.90;;;;;;4940972;28;20490;-83
2023/10/11 13:27:30;;;;;;;9.98;4.63;;;19.60;99.90;;;;;;4953742;29;20050;-83
2023/10/11 13:30:01;;;;;;;9.30;4.20;;;19.70;99.90;;;;;;4945747;28;20047;-83
2023/10/11 13:32:28;;;;;;;7.20;4.22;;;19.90;99.90;;;;;;4956496;28;20042;-84
2023/10/11 13:34:54;;;;;;;6.53;4.03;;;19.90;99.90;;;;;;4953580;28;20038;-84
2023/10/11 13:37:22;;;;;;;6.97;4.20;;;19.80;99.90;;;;;;4956428;28;20038;-81
2023/10/11 13:39:47;;;;;;;6.30;3.90;;;19.80;99.90;;;;;;4956554;28;20090;-81
2023/10/11 13:42:14;;;;;;;7.50;4.00;;;19.80;99.90;;;;;;4953337;29;20033;-84
2023/10/11 13:44:43;;;;;;;7.55;3.88;;;19.70;99.90;;;;;;4944698;28;20138;-84
2023/10/11 13:47:09;;;;;;;7.30;3.75;;;19.70;99.90;;;;;;4987142;28;20035;-84
2023/10/11 13:49:37;;;;;;;11.93;4.22;;;19.70;99.90;;;;;;4967678;28;20046;-81
2023/10/11 13:52:06;;;;;;;5.40;3.38;;;19.60;99.90;;;;;;4958239;28;20046;-82